SKSP/ADZ METAR and TAF weather

Enter ICAO airport designator
Station Type Date Time Source
SKSP METAR 2021/04/17 01:00 UTC NOAA

SKSP 170100Z 06010KT 9999 SCT017 BKN200 28/24 Q1010 RMK A2983


Station Type Date Time Source
SKSP Decoded METAR 2021/04/17 01:00 UTC NOAA

San Andres Isla / Sesquicentenario, Colombia (SKSP) 12-35N 081-43W 6M
Apr 16, 2021 - 09:00 PM EDT / 2021.04.17 0100 UTC
Wind: from the ENE (060 degrees) at 12 MPH (10 KT):0
Visibility: greater than 7 mile(s):0
Sky conditions: mostly cloudy
Temperature: 82 F (28 C)
Dew Point: 75 F (24 C)
Relative Humidity: 78%
Pressure (altimeter): 29.83 in. Hg (1010 hPa)
ob: SKSP 170100Z 06010KT 9999 SCT017 BKN200 28/24 Q1010 RMK A2983
cycle: 1

Station Type Date Time Source
SKSP TAF 2021/04/16 18:42 UTC NOAA

TAF SKSP 161630Z 1618/1718 06014KT 9999 FEW017 BKN300 PROB40
TEMPO 1708/1712 8000 DZRA SCT015TCU TX31/1619Z TN26/1710Z

Example: see airport list